createdAt,value
2019-03-09T00:01:31.649Z,9.83
2019-03-09T00:04:01.736Z,7.40
2019-03-09T00:06:31.687Z,9.33
2019-03-09T00:09:01.489Z,5.83
2019-03-09T00:11:31.344Z,9.53
2019-03-09T00:14:01.122Z,8.27
2019-03-09T00:16:31.281Z,9.63
2019-03-09T00:19:00.880Z,10.23
2019-03-09T00:21:30.525Z,6.63
2019-03-09T00:24:34.169Z,8.47
2019-03-09T00:27:29.456Z,11.23
2019-03-09T00:29:59.737Z,12.27
2019-03-09T00:32:29.428Z,6.90
2019-03-09T00:34:59.017Z,7.77
2019-03-09T00:37:28.753Z,6.97
2019-03-09T00:39:58.462Z,8.00
2019-03-09T00:42:30.967Z,8.67
2019-03-09T00:45:00.734Z,8.57
2019-03-09T00:47:30.555Z,15.60
2019-03-09T00:50:00.358Z,8.03
2019-03-09T00:52:29.998Z,11.40
2019-03-09T00:54:59.684Z,9.13
2019-03-09T00:57:29.259Z,6.73
2019-03-09T00:59:59.357Z,6.73
2019-03-09T01:02:29.426Z,7.80
2019-03-09T01:05:00.082Z,7.17
2019-03-09T01:07:29.894Z,10.13
2019-03-09T01:09:59.592Z,8.37
2019-03-09T01:12:29.389Z,9.87
2019-03-09T01:14:59.030Z,8.53
2019-03-09T01:17:30.045Z,6.63
2019-03-09T01:19:59.834Z,7.40
2019-03-09T01:22:29.501Z,9.87
2019-03-09T01:24:59.372Z,6.47
2019-03-09T01:27:28.942Z,8.90
2019-03-09T01:29:58.545Z,8.40
2019-03-09T01:32:28.269Z,11.40
2019-03-09T01:34:57.880Z,7.40
2019-03-09T01:37:27.533Z,11.17
2019-03-09T01:39:57.228Z,6.90
2019-03-09T01:42:28.280Z,7.17
2019-03-09T01:44:58.073Z,7.57
2019-03-09T01:47:27.688Z,7.73
2019-03-09T01:49:57.380Z,8.57
2019-03-09T01:52:27.061Z,7.87
2019-03-09T01:54:56.803Z,10.07
2019-03-09T01:57:31.642Z,5.77
2019-03-09T02:00:01.359Z,8.83
2019-03-09T02:02:31.031Z,9.80
2019-03-09T02:05:00.719Z,7.10
2019-03-09T02:07:30.316Z,6.33
2019-03-09T02:10:00.254Z,6.23
2019-03-09T02:12:30.065Z,8.53
2019-03-09T02:14:59.733Z,6.53
2019-03-09T02:17:29.530Z,5.73
2019-03-09T02:19:59.273Z,7.57
2019-03-09T02:22:28.943Z,5.77
2019-03-09T02:24:58.735Z,6.57
2019-03-09T02:27:28.574Z,8.67
2019-03-09T02:29:58.454Z,7.03
2019-03-09T02:32:31.564Z,7.17
2019-03-09T02:35:01.355Z,5.83
2019-03-09T02:37:31.131Z,6.07
2019-03-09T02:40:16.025Z,6.00
2019-03-09T02:42:53.546Z,10.93
2019-03-09T02:45:23.421Z,9.00
2019-03-09T02:47:53.184Z,6.90
2019-03-09T02:50:23.799Z,7.70
2019-03-09T02:52:53.339Z,8.70
2019-03-09T02:55:22.927Z,7.33
2019-03-09T02:57:52.616Z,8.20
2019-03-09T03:00:22.326Z,6.33
2019-03-09T03:02:54.945Z,7.13
2019-03-09T03:05:24.435Z,8.57
2019-03-09T03:07:54.102Z,8.37
2019-03-09T03:10:23.750Z,7.47
2019-03-09T03:12:53.275Z,11.43
2019-03-09T03:15:33.472Z,6.87
2019-03-09T03:18:03.139Z,8.20
2019-03-09T03:20:33.069Z,7.07
2019-03-09T03:23:02.653Z,7.57
2019-03-09T03:25:32.445Z,7.47
2019-03-09T03:28:02.273Z,8.10
2019-03-09T03:30:32.127Z,7.67
2019-03-09T03:33:02.221Z,8.43
2019-03-09T03:35:32.068Z,7.47
2019-03-09T03:38:04.141Z,7.43
2019-03-09T03:40:37.348Z,8.27
2019-03-09T03:43:09.243Z,5.87
2019-03-09T03:45:44.319Z,6.40
2019-03-09T03:48:15.821Z,5.90
2019-03-09T03:50:46.403Z,5.77
2019-03-09T03:53:18.436Z,6.53
2019-03-09T03:55:49.472Z,5.93
2019-03-09T03:58:22.107Z,4.60
2019-03-09T04:00:55.872Z,6.83
2019-03-09T04:03:27.562Z,4.50
2019-03-09T04:05:57.896Z,4.97
2019-03-09T04:08:29.287Z,5.97
2019-03-09T04:10:59.798Z,5.93
2019-03-09T04:13:30.313Z,6.10
2019-03-09T04:16:04.622Z,5.30
2019-03-09T04:18:35.163Z,4.73
2019-03-09T04:21:06.838Z,5.30
2019-03-09T04:23:37.920Z,5.27
2019-03-09T04:26:07.935Z,4.47
2019-03-09T04:28:37.945Z,4.43
2019-03-09T04:31:08.848Z,4.23
2019-03-09T04:33:40.190Z,5.43
2019-03-09T04:36:10.207Z,4.20
2019-03-09T04:38:41.392Z,4.83
2019-03-09T04:41:11.649Z,5.07
2019-03-09T04:43:41.870Z,4.37
2019-03-09T04:46:12.220Z,4.53
2019-03-09T04:48:46.767Z,4.03
2019-03-09T04:51:21.018Z,5.77
2019-03-09T04:53:51.064Z,5.83
2019-03-09T04:56:21.220Z,4.63
2019-03-09T04:58:51.211Z,6.33
2019-03-09T05:01:21.045Z,5.63
2019-03-09T05:04:30.243Z,5.47
2019-03-09T05:07:00.001Z,5.67
2019-03-09T05:10:09.223Z,5.30
2019-03-09T05:12:38.817Z,5.87
2019-03-09T05:15:09.965Z,7.00
2019-03-09T05:17:39.747Z,6.77
2019-03-09T05:20:09.643Z,6.37
2019-03-09T05:22:39.361Z,8.13
2019-03-09T05:25:08.923Z,8.93
2019-03-09T05:27:38.577Z,8.47
2019-03-09T05:30:10.012Z,5.23
2019-03-09T05:32:39.641Z,7.37
2019-03-09T05:35:09.323Z,7.63
2019-03-09T05:37:43.171Z,8.33
2019-03-09T05:40:10.191Z,5.90
2019-03-09T05:42:39.885Z,6.33
2019-03-09T05:45:09.619Z,8.13
2019-03-09T05:47:39.181Z,9.63
2019-03-09T05:50:08.820Z,6.97
2019-03-09T05:52:38.722Z,9.77
2019-03-09T05:55:28.766Z,9.93
2019-03-09T05:57:58.240Z,11.23
2019-03-09T06:00:27.937Z,9.07
2019-03-09T06:02:57.839Z,8.67
2019-03-09T06:05:38.372Z,9.27
2019-03-09T06:08:08.727Z,11.60
2019-03-09T06:10:38.565Z,8.27
2019-03-09T06:13:08.478Z,10.90
2019-03-09T06:15:38.306Z,9.17
2019-03-09T06:18:08.021Z,10.63
2019-03-09T06:20:41.106Z,10.00
2019-03-09T06:23:10.900Z,11.27
2019-03-09T06:25:40.590Z,10.43
2019-03-09T06:28:10.290Z,8.27
2019-03-09T06:30:40.018Z,11.30
2019-03-09T06:33:42.835Z,10.27
2019-03-09T06:36:38.809Z,11.53
2019-03-09T06:39:15.359Z,11.67
2019-03-09T06:42:05.924Z,11.27
2019-03-09T06:44:35.503Z,9.10
2019-03-09T06:47:05.334Z,12.53
2019-03-09T06:49:34.955Z,8.37
2019-03-09T06:52:07.691Z,9.53
2019-03-09T06:54:37.582Z,8.73
2019-03-09T06:57:13.947Z,12.23
2019-03-09T06:59:38.821Z,14.33
2019-03-09T07:02:08.564Z,7.73
2019-03-09T07:04:38.182Z,9.53
2019-03-09T07:07:07.957Z,7.70
2019-03-09T07:09:37.792Z,10.00
2019-03-09T07:12:07.615Z,8.60
2019-03-09T07:15:12.083Z,9.07
2019-03-09T07:17:43.156Z,10.40
2019-03-09T07:20:13.177Z,9.70
2019-03-09T07:22:42.986Z,7.93
2019-03-09T07:25:12.835Z,10.57
2019-03-09T07:27:42.702Z,9.33
2019-03-09T07:30:17.486Z,8.43
2019-03-09T07:32:50.573Z,9.90
2019-03-09T07:35:20.545Z,7.30
2019-03-09T07:37:53.427Z,10.50
2019-03-09T07:40:25.185Z,9.40
2019-03-09T07:42:54.941Z,7.43
2019-03-09T07:45:24.764Z,7.40
2019-03-09T07:47:54.674Z,11.63
2019-03-09T07:50:24.407Z,13.10
2019-03-09T07:52:54.216Z,9.20
2019-03-09T07:55:24.127Z,9.50
2019-03-09T07:58:04.082Z,10.37
2019-03-09T08:00:33.977Z,6.90
2019-03-09T08:03:03.665Z,14.07
2019-03-09T08:05:33.464Z,8.00
2019-03-09T08:08:03.271Z,8.50
2019-03-09T08:10:33.136Z,8.70
2019-03-09T08:13:02.890Z,8.37
2019-03-09T08:15:33.739Z,9.33
2019-03-09T08:18:03.574Z,10.73
2019-03-09T08:20:33.317Z,10.23
2019-03-09T08:23:03.093Z,10.93
2019-03-09T08:25:34.162Z,10.53
2019-03-09T08:28:03.953Z,12.17
2019-03-09T08:30:33.836Z,10.20
2019-03-09T08:33:03.964Z,11.50
2019-03-09T08:35:33.865Z,11.47
2019-03-09T08:38:03.579Z,12.67
2019-03-09T08:40:33.371Z,10.07
2019-03-09T08:43:03.065Z,8.63
2019-03-09T08:45:32.831Z,9.40
2019-03-09T08:48:04.472Z,11.23
2019-03-09T08:50:33.925Z,14.40
2019-03-09T08:53:03.676Z,11.07
2019-03-09T08:55:33.843Z,11.40
2019-03-09T08:58:03.641Z,11.00
2019-03-09T09:00:33.890Z,11.00
2019-03-09T09:03:03.659Z,11.30
2019-03-09T09:05:33.381Z,11.37
2019-03-09T09:08:03.980Z,11.27
2019-03-09T09:10:33.957Z,9.03
2019-03-09T09:13:03.764Z,9.50
2019-03-09T09:15:33.438Z,13.23
2019-03-09T09:18:03.271Z,10.60
2019-03-09T09:20:32.858Z,10.07
2019-03-09T09:23:02.628Z,13.60
2019-03-09T09:25:32.917Z,12.50
2019-03-09T09:28:03.630Z,11.80
2019-03-09T09:30:36.133Z,13.53
2019-03-09T09:33:05.911Z,11.60
2019-03-09T09:35:35.543Z,8.93
2019-03-09T09:38:05.146Z,12.53
2019-03-09T09:40:34.760Z,14.70
2019-03-09T09:43:04.381Z,10.93
2019-03-09T09:45:33.948Z,12.20
2019-03-09T09:48:13.051Z,10.83
2019-03-09T09:50:43.215Z,14.47
2019-03-09T09:53:12.862Z,12.07
2019-03-09T09:55:42.704Z,12.13
2019-03-09T09:58:14.449Z,11.00
2019-03-09T10:00:45.308Z,14.17
2019-03-09T10:03:18.015Z,12.73
2019-03-09T10:05:51.323Z,13.13
2019-03-09T10:08:21.183Z,11.87
2019-03-09T10:10:51.732Z,9.27
2019-03-09T10:13:21.545Z,12.97
2019-03-09T10:15:51.284Z,15.20
2019-03-09T10:18:20.995Z,14.33
2019-03-09T10:20:53.794Z,11.03
2019-03-09T10:23:23.407Z,12.03
2019-03-09T10:25:53.163Z,12.70
2019-03-09T10:28:22.980Z,11.17
2019-03-09T10:30:53.719Z,13.23
2019-03-09T10:33:24.229Z,13.03
2019-03-09T10:35:53.878Z,10.90
2019-03-09T10:38:24.803Z,14.10
2019-03-09T10:40:54.490Z,11.60
2019-03-09T10:43:24.187Z,20.80
2019-03-09T10:45:53.927Z,11.10
2019-03-09T10:48:23.670Z,9.97
2019-03-09T10:50:55.620Z,10.57
2019-03-09T10:53:25.347Z,12.20
2019-03-09T10:55:55.117Z,9.20
2019-03-09T10:58:24.719Z,12.60
2019-03-09T11:00:54.410Z,10.93
2019-03-09T11:03:24.057Z,11.20
2019-03-09T11:05:53.782Z,15.37
2019-03-09T11:08:23.633Z,10.07
2019-03-09T11:10:53.484Z,12.23
2019-03-09T11:13:25.463Z,12.27
2019-03-09T11:15:55.181Z,11.90
2019-03-09T11:18:24.917Z,11.20
2019-03-09T11:20:54.542Z,7.70
2019-03-09T11:23:27.335Z,8.20
2019-03-09T11:25:58.215Z,8.60
2019-03-09T11:28:27.856Z,11.13
2019-03-09T11:30:57.706Z,12.97
2019-03-09T11:33:28.736Z,8.17
2019-03-09T11:35:58.361Z,14.17
2019-03-09T11:38:28.043Z,7.40
2019-03-09T11:41:00.636Z,8.30
2019-03-09T11:43:29.078Z,7.50
2019-03-09T11:45:58.906Z,10.17
2019-03-09T11:48:28.672Z,7.80
2019-03-09T11:50:58.483Z,10.47
2019-03-09T11:53:28.101Z,7.40
2019-03-09T11:55:57.806Z,8.83
2019-03-09T11:58:27.721Z,9.60
2019-03-09T12:00:59.391Z,8.83
2019-03-09T12:03:28.984Z,10.33
2019-03-09T12:05:59.705Z,11.90
2019-03-09T12:08:31.706Z,6.83
2019-03-09T12:11:01.444Z,8.63
2019-03-09T12:13:31.221Z,8.23
2019-03-09T12:16:01.050Z,9.00
2019-03-09T12:18:30.798Z,8.77
2019-03-09T12:21:00.579Z,15.20
2019-03-09T12:23:30.391Z,8.23
2019-03-09T12:26:00.076Z,10.50
2019-03-09T12:28:29.815Z,8.63
2019-03-09T12:30:59.576Z,7.63
2019-03-09T12:33:29.229Z,7.40
2019-03-09T12:35:58.964Z,7.17
2019-03-09T12:38:30.513Z,10.30
2019-03-09T12:41:00.138Z,6.03
2019-03-09T12:43:29.809Z,8.90
2019-03-09T12:45:59.624Z,6.83
2019-03-09T12:48:31.961Z,6.47
2019-03-09T12:51:03.251Z,11.00
2019-03-09T12:53:33.146Z,10.27
2019-03-09T12:56:02.875Z,5.60
2019-03-09T12:58:32.614Z,10.27
2019-03-09T13:01:02.200Z,7.37
2019-03-09T13:03:32.014Z,8.93
2019-03-09T13:06:01.894Z,7.90
2019-03-09T13:08:31.553Z,13.53
2019-03-09T13:11:01.331Z,11.50
2019-03-09T13:13:31.070Z,9.63
2019-03-09T13:16:00.779Z,8.27
2019-03-09T13:18:30.570Z,8.93
2019-03-09T13:21:02.894Z,9.07
2019-03-09T13:23:32.649Z,7.57
2019-03-09T13:26:02.503Z,10.77
2019-03-09T13:28:32.154Z,9.40
2019-03-09T13:31:03.186Z,8.50
2019-03-09T13:33:32.922Z,14.53
2019-03-09T13:36:02.567Z,9.80
2019-03-09T13:38:32.345Z,12.43
2019-03-09T13:41:02.035Z,15.80
2019-03-09T13:43:31.685Z,9.67
2019-03-09T13:46:01.524Z,6.83
2019-03-09T13:48:31.300Z,12.87
2019-03-09T13:51:00.946Z,9.57
2019-03-09T13:53:30.667Z,6.67
2019-03-09T13:56:00.346Z,11.87
2019-03-09T13:58:31.263Z,10.30
2019-03-09T14:01:01.225Z,8.07
2019-03-09T14:03:33.852Z,12.80
2019-03-09T14:06:03.900Z,10.33
2019-03-09T14:08:33.661Z,15.47
2019-03-09T14:11:03.280Z,8.23
2019-03-09T14:13:34.338Z,12.10
2019-03-09T14:16:04.015Z,10.23
2019-03-09T14:18:33.740Z,7.70
2019-03-09T14:21:03.241Z,11.30
2019-03-09T14:23:32.797Z,7.00
2019-03-09T14:26:02.353Z,10.57
2019-03-09T14:28:32.034Z,13.20
2019-03-09T14:31:01.672Z,12.73
2019-03-09T14:33:31.389Z,14.70
2019-03-09T14:36:01.124Z,18.13
2019-03-09T14:38:35.256Z,17.53
2019-03-09T14:41:04.711Z,12.83
2019-03-09T14:43:36.756Z,16.60
2019-03-09T14:46:06.533Z,20.77
2019-03-09T14:48:36.245Z,16.23
2019-03-09T14:51:08.070Z,17.03
2019-03-09T14:53:37.273Z,16.03
2019-03-09T14:56:06.975Z,13.93
2019-03-09T14:58:38.933Z,14.30
2019-03-09T15:01:09.320Z,18.80
2019-03-09T15:03:39.036Z,16.07
2019-03-09T15:06:11.534Z,17.97
2019-03-09T15:11:37.761Z,15.40
2019-03-09T15:14:07.227Z,15.33
2019-03-09T15:16:36.681Z,12.30
2019-03-09T15:19:06.025Z,12.97
2019-03-09T15:21:35.352Z,16.33
2019-03-09T15:24:05.903Z,13.77
2019-03-09T15:26:35.313Z,9.30
2019-03-09T15:29:04.631Z,8.40
2019-03-09T15:31:33.969Z,6.37
2019-03-09T15:34:03.296Z,7.13
2019-03-09T15:36:32.685Z,8.77
2019-03-09T15:39:02.079Z,7.87
2019-03-09T15:41:31.403Z,3.10
2019-03-09T15:44:00.774Z,4.37
2019-03-09T15:46:30.134Z,2.30
2019-03-09T15:48:59.578Z,3.70
2019-03-09T15:51:28.929Z,5.37
2019-03-09T15:53:58.250Z,4.20
2019-03-09T15:56:27.716Z,8.00
2019-03-09T15:58:57.099Z,5.87
2019-03-09T16:01:26.447Z,6.90
2019-03-09T16:03:57.230Z,8.20
2019-03-09T16:06:26.754Z,3.87
2019-03-09T16:08:56.040Z,6.83
2019-03-09T16:11:25.403Z,6.60
2019-03-09T16:13:55.138Z,6.63
2019-03-09T16:16:24.573Z,6.43
2019-03-09T16:18:58.789Z,4.83
2019-03-09T16:21:29.055Z,4.53
2019-03-09T16:23:59.487Z,5.77
2019-03-09T16:26:31.943Z,2.57
2019-03-09T16:29:01.759Z,4.90
2019-03-09T16:31:33.208Z,3.60
2019-03-09T16:34:15.458Z,5.07
2019-03-09T16:36:48.023Z,2.20
2019-03-09T16:39:41.177Z,4.17
2019-03-09T16:42:13.543Z,4.43
2019-03-09T16:44:47.110Z,4.27
2019-03-09T16:47:20.814Z,3.20
2019-03-09T16:50:05.919Z,5.40
2019-03-09T16:52:47.738Z,5.07
2019-03-09T16:56:13.564Z,4.83
2019-03-09T16:58:53.355Z,4.37
2019-03-09T17:01:31.863Z,4.53
2019-03-09T17:04:09.423Z,4.20
2019-03-09T17:06:43.974Z,5.40
2019-03-09T17:09:16.216Z,4.27
2019-03-09T17:11:50.306Z,7.20
2019-03-09T17:14:25.982Z,6.00
2019-03-09T17:17:09.918Z,7.33
2019-03-09T17:20:02.789Z,5.37
2019-03-09T17:22:55.356Z,10.17
2019-03-09T17:36:55.442Z,7.27
2019-03-09T18:58:44.681Z,9.93
2019-03-09T19:01:14.385Z,8.03
2019-03-09T19:03:45.476Z,8.90
2019-03-09T19:06:14.976Z,11.57
2019-03-09T19:08:44.709Z,10.67
2019-03-09T19:11:14.300Z,11.70
2019-03-09T19:13:44.026Z,12.73
2019-03-09T19:16:13.695Z,13.60
2019-03-09T19:18:43.185Z,14.93
2019-03-09T19:21:13.636Z,15.03
2019-03-09T19:23:43.442Z,10.30
2019-03-09T19:26:13.141Z,16.73
2019-03-09T19:28:47.528Z,8.67
2019-03-09T19:31:17.195Z,10.27
2019-03-09T19:33:49.596Z,13.37
2019-03-09T19:36:20.541Z,8.40
2019-03-09T19:38:50.617Z,10.03
2019-03-09T19:41:22.294Z,15.30
2019-03-09T19:43:54.711Z,18.07
2019-03-09T19:46:24.339Z,12.63
2019-03-09T19:48:55.646Z,11.67
2019-03-09T19:51:25.412Z,11.17
2019-03-09T19:53:55.607Z,12.17
2019-03-09T19:56:25.485Z,10.83
2019-03-09T19:58:55.243Z,10.73
2019-03-09T20:01:24.944Z,13.67
2019-03-09T20:03:54.695Z,12.23
2019-03-09T20:06:24.407Z,9.33
2019-03-09T20:08:56.055Z,3.50
2019-03-09T20:11:25.772Z,11.93
2019-03-09T20:13:55.434Z,10.03
2019-03-09T20:16:25.077Z,7.30
2019-03-09T20:18:54.793Z,10.50
2019-03-09T20:21:24.465Z,10.00
2019-03-09T20:23:54.126Z,9.13
2019-03-09T20:26:24.058Z,6.43
2019-03-09T20:28:53.637Z,8.57
2019-03-09T20:31:23.320Z,11.13
2019-03-09T20:33:52.887Z,11.93
2019-03-09T20:36:22.752Z,11.03
2019-03-09T20:38:52.373Z,9.77
2019-03-09T20:41:22.107Z,12.77
2019-03-09T20:43:51.828Z,9.57
2019-03-09T20:46:21.475Z,9.37
2019-03-09T20:48:51.158Z,11.20
2019-03-09T20:51:20.870Z,11.00
2019-03-09T20:53:53.485Z,11.53
2019-03-09T20:56:24.809Z,9.20
2019-03-09T20:58:54.694Z,10.13
2019-03-09T21:01:27.420Z,11.80
2019-03-09T21:03:58.211Z,10.37
2019-03-09T21:06:27.831Z,13.40
2019-03-09T21:08:57.546Z,9.03
2019-03-09T21:11:29.083Z,7.97
2019-03-09T21:13:58.550Z,10.87
2019-03-09T21:16:29.140Z,9.33
2019-03-09T21:18:58.848Z,10.33
2019-03-09T21:21:28.429Z,13.50
2019-03-09T21:23:58.093Z,10.93
2019-03-09T21:26:27.958Z,12.10
2019-03-09T21:28:57.563Z,10.17
2019-03-09T21:31:29.977Z,7.73
2019-03-09T21:33:59.626Z,8.47
2019-03-09T21:36:29.348Z,11.73
2019-03-09T21:38:59.122Z,12.30
2019-03-09T21:41:28.802Z,12.77
2019-03-09T21:43:58.534Z,12.13
2019-03-09T21:46:28.112Z,11.57
2019-03-09T21:48:57.865Z,15.47
2019-03-09T21:51:27.601Z,10.30
2019-03-09T21:53:57.252Z,14.67
2019-03-09T21:56:27.067Z,8.80
2019-03-09T21:58:56.765Z,10.33
2019-03-09T22:01:27.812Z,8.80
2019-03-09T22:03:57.678Z,17.77
2019-03-09T22:06:27.435Z,12.23
2019-03-09T22:08:57.054Z,19.17
2019-03-09T22:11:27.907Z,11.53
2019-03-09T22:13:57.678Z,15.77
2019-03-09T22:16:27.441Z,11.03
2019-03-09T22:18:57.266Z,13.30
2019-03-09T22:21:26.981Z,16.93
2019-03-09T22:23:56.943Z,9.73
2019-03-09T22:26:26.831Z,10.47
2019-03-09T22:28:56.764Z,11.93
2019-03-09T22:31:26.719Z,10.53
2019-03-09T22:33:57.826Z,16.80
2019-03-09T22:36:27.563Z,10.10
2019-03-09T22:38:57.327Z,11.53
2019-03-09T22:41:26.994Z,9.20
2019-03-09T22:43:56.596Z,13.20
2019-03-09T22:46:26.277Z,14.03
2019-03-09T22:48:56.021Z,13.07
2019-03-09T22:51:25.789Z,12.07
2019-03-09T22:53:55.614Z,6.83
2019-03-09T22:56:25.313Z,9.93
2019-03-09T22:58:55.068Z,13.33
2019-03-09T23:01:25.928Z,12.93
2019-03-09T23:03:55.787Z,9.43
2019-03-09T23:06:25.712Z,11.77
2019-03-09T23:08:55.551Z,7.73
2019-03-09T23:11:25.333Z,9.83
2019-03-09T23:13:55.069Z,13.50
2019-03-09T23:16:25.044Z,9.40
2019-03-09T23:18:56.268Z,10.70
2019-03-09T23:21:26.032Z,9.10
2019-03-09T23:23:55.739Z,12.77
2019-03-09T23:26:25.566Z,12.33
2019-03-09T23:28:58.260Z,9.03
2019-03-09T23:31:27.959Z,12.93
2019-03-09T23:33:57.653Z,8.67
2019-03-09T23:36:27.436Z,11.47
2019-03-09T23:38:57.246Z,9.47
2019-03-09T23:41:26.971Z,11.47
2019-03-09T23:43:56.679Z,9.30
2019-03-09T23:46:26.486Z,10.73
2019-03-09T23:48:56.343Z,7.83
2019-03-09T23:51:26.129Z,9.07
2019-03-09T23:53:55.894Z,9.30
2019-03-09T23:56:25.602Z,8.07
2019-03-09T23:58:55.511Z,10.47
